Terminal Aerodrome Forecast
Issued by NWS

Current Version | Previous Version | Text Only | Print | Product List | Glossary Off
Versions: 1 2 3 4 5 6 7 8 9 10 11 12 13 14 15 16 17 18 19 20 21 22 23 24 25 26 27 28 29 30 31

085
FTUS41 KILN 222056 AAA
TAFLUK
TAF AMD
KLUK 222056Z 2221/2318 19009KT P6SM -SHRA SCT028 OVC035
      TEMPO 2222/2302 5SM BR BKN022
     FM230300 18010KT P6SM VCSH OVC026
     FM230800 21009KT 4SM -SHRA OVC016=

USA.gov is the U.S. government's official web portal to all federal, state and local government web resources and services.